Time;durP1;ratioP1;P1;durP2;ratioP2;P2;SDS_P1;SDS_P2;PMS_P1;PMS_P2;Temp;Humidity;BMP_temperature;BMP_pressure;BME280_temperature;BME280_humidity;BME280_pressure;Samples;Min_cycle;Max_cycle;Signal;HPM_P1;HPM_P2
2023/07/16 00:00:51;;;;;;;1999.90;999.90;;;18.20;99.90;;;;;;4821003;29;20115;-74
2023/07/16 00:03:16;;;;;;;1999.90;999.90;;;18.20;99.90;;;;;;4821183;29;20057;-74
2023/07/16 00:05:42;;;;;;;1999.90;999.90;;;18.10;99.90;;;;;;4806925;29;20042;-74
2023/07/16 00:08:08;;;;;;;1999.90;999.90;;;18.10;99.90;;;;;;4790729;29;20110;-73
2023/07/16 00:10:37;;;;;;;1999.90;999.90;;;18.10;99.90;;;;;;4806800;29;20062;-73
2023/07/16 00:13:06;;;;;;;1999.90;999.90;;;18.00;99.90;;;;;;4820913;29;20107;-74
2023/07/16 00:15:31;;;;;;;1999.90;999.90;;;18.00;99.90;;;;;;4790646;29;20515;-73
2023/07/16 00:17:57;;;;;;;1999.90;999.90;;;18.00;99.90;;;;;;4806723;29;20047;-74
2023/07/16 00:20:25;;;;;;;1999.90;999.90;;;17.90;99.90;;;;;;4806105;29;20392;-73
2023/07/16 00:22:52;;;;;;;1999.90;999.90;;;17.80;99.90;;;;;;4806019;29;20054;-73
2023/07/16 00:25:18;;;;;;;1999.90;999.90;;;17.80;99.90;;;;;;4791379;29;20193;-74
2023/07/16 00:27:43;;;;;;;1999.90;999.90;;;17.80;99.90;;;;;;4806628;29;20078;-74
2023/07/16 00:30:09;;;;;;;1999.90;999.90;;;17.80;99.90;;;;;;4820924;29;20051;-74
2023/07/16 00:32:35;;;;;;;1999.90;999.90;;;17.80;99.90;;;;;;4806641;29;20400;-73
2023/07/16 00:35:01;;;;;;;1999.90;999.90;;;17.70;99.90;;;;;;4805354;29;20058;-73
2023/07/16 00:37:27;;;;;;;1999.90;999.90;;;17.70;99.90;;;;;;4806377;29;20086;-72
2023/07/16 00:39:53;;;;;;;1999.90;999.90;;;17.70;99.90;;;;;;4806337;29;20055;-72
2023/07/16 00:42:19;;;;;;;1999.90;999.90;;;17.70;99.90;;;;;;4806218;29;20050;-73
2023/07/16 00:44:45;;;;;;;1999.90;999.90;;;17.70;99.90;;;;;;4806464;29;20046;-73
2023/07/16 00:47:11;;;;;;;1999.90;999.90;;;17.70;99.90;;;;;;4790887;29;20234;-72
2023/07/16 00:49:38;;;;;;;1999.90;999.90;;;17.70;99.90;;;;;;4790243;29;20534;-73
2023/07/16 00:52:07;;;;;;;1999.90;999.90;;;17.60;99.90;;;;;;4807083;29;20381;-72
2023/07/16 00:54:33;;;;;;;1999.90;999.90;;;17.70;99.90;;;;;;4806163;29;20055;-73
2023/07/16 00:56:58;;;;;;;1999.90;999.90;;;17.60;99.90;;;;;;4806817;29;20058;-73
2023/07/16 00:59:24;;;;;;;1999.90;999.90;;;17.60;99.90;;;;;;4806338;29;20050;-73
2023/07/16 01:01:50;;;;;;;1999.90;999.90;;;17.50;99.90;;;;;;4806275;29;20112;-73
2023/07/16 01:04:16;;;;;;;1999.90;999.90;;;17.50;99.90;;;;;;4790136;29;20046;-72
2023/07/16 01:06:49;;;;;;;1999.90;999.90;;;17.50;99.90;;;;;;4820392;29;20063;-73
2023/07/16 01:09:19;;;;;;;1999.90;999.90;;;17.50;99.90;;;;;;4804798;29;20541;-72
2023/07/16 01:11:47;;;;;;;1999.90;999.90;;;17.50;99.90;;;;;;4805213;29;20050;-72
2023/07/16 01:14:16;;;;;;;1999.90;999.90;;;17.50;99.90;;;;;;4820817;29;20046;-73
2023/07/16 01:16:42;;;;;;;1999.90;999.90;;;17.60;99.90;;;;;;4790174;29;20061;-73
2023/07/16 01:19:08;;;;;;;1999.90;999.90;;;17.60;99.90;;;;;;4805085;29;20054;-74
2023/07/16 01:21:57;;;;;;;1999.90;999.90;;;17.60;99.90;;;;;;4790391;29;20122;-72
2023/07/16 01:25:01;;;;;;;1999.90;999.90;;;17.60;99.90;;;;;;4798775;29;20450;-73
2023/07/16 01:27:59;;;;;;;1999.90;999.90;;;17.60;99.90;;;;;;4801409;29;20059;-73
2023/07/16 01:30:27;;;;;;;1999.90;999.90;;;17.50;99.90;;;;;;4806072;29;20059;-73
2023/07/16 01:32:53;;;;;;;1999.90;999.90;;;17.50;99.90;;;;;;4790033;29;20137;-73
2023/07/16 01:35:19;;;;;;;1999.90;999.90;;;17.50;99.90;;;;;;4804816;29;20066;-73
2023/07/16 01:37:45;;;;;;;1999.90;999.90;;;17.40;99.90;;;;;;4805900;29;20051;-73
2023/07/16 01:40:11;;;;;;;1999.90;999.90;;;17.40;99.90;;;;;;4805815;29;20070;-72
2023/07/16 01:42:37;;;;;;;1999.90;999.90;;;17.40;99.90;;;;;;4820723;29;20133;-73
2023/07/16 01:45:03;;;;;;;1999.90;999.90;;;17.40;99.90;;;;;;4823636;29;20058;-73
2023/07/16 01:47:40;;;;;;;1999.90;999.90;;;17.40;99.90;;;;;;4808291;29;20054;-72
2023/07/16 01:50:06;;;;;;;1999.90;999.90;;;17.40;99.90;;;;;;4809887;29;20437;-72
2023/07/16 01:52:32;;;;;;;1999.90;999.90;;;17.40;99.90;;;;;;4809077;29;20114;-72
2023/07/16 01:54:58;;;;;;;1999.90;999.90;;;17.30;99.90;;;;;;4808849;29;20142;-73
2023/07/16 01:57:23;;;;;;;1999.90;999.90;;;17.30;99.90;;;;;;4809542;29;20499;-73
2023/07/16 01:59:49;;;;;;;1999.90;999.90;;;17.30;99.90;;;;;;4809061;29;20051;-73
2023/07/16 02:02:15;;;;;;;1999.90;999.90;;;17.20;99.90;;;;;;4808883;29;20610;-74
2023/07/16 02:04:40;;;;;;;1999.90;999.90;;;17.20;99.90;;;;;;4808874;29;20047;-73
2023/07/16 02:07:06;;;;;;;1999.90;999.90;;;17.20;99.90;;;;;;4808864;29;20137;-74
2023/07/16 02:09:35;;;;;;;1999.90;999.90;;;17.20;99.90;;;;;;4822746;29;20077;-73
2023/07/16 02:12:00;;;;;;;1999.90;999.90;;;17.10;99.90;;;;;;4808787;29;20146;-73
2023/07/16 02:14:26;;;;;;;1999.90;999.90;;;17.10;99.90;;;;;;4807920;29;20090;-73
2023/07/16 02:16:52;;;;;;;1999.90;999.90;;;17.10;99.90;;;;;;4808719;29;20559;-74
2023/07/16 02:19:17;;;;;;;1999.90;999.90;;;17.10;99.90;;;;;;4807623;29;20061;-73
2023/07/16 02:21:43;;;;;;;1999.90;999.90;;;17.10;99.90;;;;;;4807439;29;20483;-73
2023/07/16 02:24:09;;;;;;;1999.90;999.90;;;17.10;99.90;;;;;;4808168;29;20104;-74
2023/07/16 02:26:35;;;;;;;1999.90;999.90;;;17.10;99.90;;;;;;4809034;29;20057;-73
2023/07/16 02:29:00;;;;;;;1999.90;999.90;;;17.10;99.90;;;;;;4808464;29;20047;-73
2023/07/16 02:31:26;;;;;;;1999.90;999.90;;;17.00;99.90;;;;;;4808397;29;20142;-74
2023/07/16 02:33:52;;;;;;;1999.90;999.90;;;17.10;99.90;;;;;;4808671;29;20046;-74
2023/07/16 02:36:17;;;;;;;1999.90;999.90;;;17.00;99.90;;;;;;4807359;29;20474;-73
2023/07/16 02:38:43;;;;;;;1999.90;999.90;;;17.00;99.90;;;;;;4807044;29;20054;-72
2023/07/16 02:41:09;;;;;;;1999.90;999.90;;;17.00;99.90;;;;;;4808307;29;20055;-73
2023/07/16 02:43:34;;;;;;;1999.90;999.90;;;17.00;99.90;;;;;;4822778;29;20059;-72
2023/07/16 02:46:00;;;;;;;1999.90;999.90;;;17.00;99.90;;;;;;4808251;29;20046;-72
2023/07/16 02:48:26;;;;;;;1999.90;999.90;;;17.00;99.90;;;;;;4808145;29;20055;-73
2023/07/16 02:50:51;;;;;;;1999.90;999.90;;;17.00;99.90;;;;;;4821563;29;20111;-74
2023/07/16 02:53:17;;;;;;;1999.90;999.90;;;17.00;99.90;;;;;;4821808;29;20070;-73
2023/07/16 02:55:45;;;;;;;1999.90;999.90;;;17.00;99.90;;;;;;4808094;29;20051;-73
2023/07/16 02:58:11;;;;;;;1999.90;999.90;;;17.00;99.90;;;;;;4807017;29;20055;-74
2023/07/16 03:00:36;;;;;;;1999.90;999.90;;;17.00;99.90;;;;;;4821878;29;20051;-73
2023/07/16 03:03:02;;;;;;;1999.90;999.90;;;17.00;99.90;;;;;;4822138;29;20088;-73
2023/07/16 03:05:28;;;;;;;1999.90;999.90;;;17.00;99.90;;;;;;4822412;29;20055;-73
2023/07/16 03:07:54;;;;;;;1999.90;999.90;;;17.00;99.90;;;;;;4806962;29;20050;-73
2023/07/16 03:10:21;;;;;;;1999.90;999.90;;;17.00;99.90;;;;;;4807534;29;20356;-72
2023/07/16 03:12:46;;;;;;;1999.90;999.90;;;17.00;99.90;;;;;;4807864;29;20073;-73
2023/07/16 03:15:12;;;;;;;1999.90;999.90;;;17.00;99.90;;;;;;4806765;29;20492;-72
2023/07/16 03:17:38;;;;;;;1999.90;999.90;;;17.00;99.90;;;;;;4807609;29;20050;-73
2023/07/16 03:20:05;;;;;;;1999.90;999.90;;;17.00;99.90;;;;;;4807714;29;20492;-72
2023/07/16 03:22:31;;;;;;;1999.90;999.90;;;17.00;99.90;;;;;;4806595;29;20051;-73
2023/07/16 03:24:57;;;;;;;1999.90;999.90;;;16.90;99.90;;;;;;4808116;29;20058;-73
2023/07/16 03:27:22;;;;;;;1999.90;999.90;;;16.90;99.90;;;;;;4807957;29;20070;-73
2023/07/16 03:29:48;;;;;;;1999.90;999.90;;;16.90;99.90;;;;;;4821643;29;20050;-72
2023/07/16 03:32:14;;;;;;;1999.90;999.90;;;16.90;99.90;;;;;;4805949;29;20361;-72
2023/07/16 03:34:39;;;;;;;1999.90;999.90;;;16.90;99.90;;;;;;4807780;29;20061;-72
2023/07/16 03:37:06;;;;;;;1999.90;999.90;;;16.80;99.90;;;;;;4806116;29;20573;-73
2023/07/16 03:39:31;;;;;;;1999.90;999.90;;;16.80;99.90;;;;;;4807259;29;20063;-72
2023/07/16 03:41:57;;;;;;;1999.90;999.90;;;16.80;99.90;;;;;;4807507;29;20047;-73
2023/07/16 03:44:23;;;;;;;1999.90;999.90;;;16.70;99.90;;;;;;4807146;29;20463;-73
2023/07/16 03:46:48;;;;;;;1999.90;999.90;;;16.70;99.90;;;;;;4807136;29;20046;-73
2023/07/16 03:49:14;;;;;;;1999.90;999.90;;;16.70;99.90;;;;;;4807109;29;20119;-73
2023/07/16 03:51:40;;;;;;;1999.90;999.90;;;16.70;99.90;;;;;;4807515;29;20094;-73
2023/07/16 03:54:05;;;;;;;1999.90;999.90;;;16.70;99.90;;;;;;4807079;29;20055;-74
2023/07/16 03:56:31;;;;;;;1999.90;999.90;;;16.70;99.90;;;;;;4822148;29;20062;-73
2023/07/16 03:58:57;;;;;;;1999.90;999.90;;;16.60;99.90;;;;;;4791092;29;20089;-72
2023/07/16 04:01:22;;;;;;;1999.90;999.90;;;16.60;99.90;;;;;;4807434;29;20425;-73
2023/07/16 04:03:48;;;;;;;1999.90;999.90;;;16.70;99.90;;;;;;4806603;29;20142;-72
2023/07/16 04:06:14;;;;;;;1999.90;999.90;;;16.70;99.90;;;;;;4806164;29;20059;-72
2023/07/16 04:08:40;;;;;;;1999.90;999.90;;;16.60;99.90;;;;;;4805906;29;20106;-72
2023/07/16 04:11:06;;;;;;;1999.90;999.90;;;16.70;99.90;;;;;;4805955;29;20051;-72
2023/07/16 04:13:31;;;;;;;1999.90;999.90;;;16.70;99.90;;;;;;4821157;29;20050;-75
2023/07/16 04:15:57;;;;;;;1999.90;999.90;;;16.70;99.90;;;;;;4806872;29;20151;-72
2023/07/16 04:18:26;;;;;;;1999.90;999.90;;;16.70;99.90;;;;;;4805681;29;20074;-72
2023/07/16 04:20:52;;;;;;;1999.90;999.90;;;16.70;99.90;;;;;;4806742;29;20046;-73
2023/07/16 04:23:19;;;;;;;1999.90;999.90;;;16.70;99.90;;;;;;4806045;29;20145;-72
2023/07/16 04:25:45;;;;;;;1999.90;999.90;;;16.70;99.90;;;;;;4806604;29;20094;-72
2023/07/16 04:28:11;;;;;;;1999.90;999.90;;;16.70;99.90;;;;;;4805598;29;20590;-73
2023/07/16 04:30:37;;;;;;;1999.90;999.90;;;16.50;99.90;;;;;;4806771;29;20043;-73
2023/07/16 04:33:04;;;;;;;1999.90;999.90;;;16.70;99.90;;;;;;4805558;29;20510;-73
2023/07/16 04:35:30;;;;;;;1999.90;999.90;;;16.70;99.90;;;;;;4805811;29;20441;-72
2023/07/16 04:37:55;;;;;;;1999.90;999.90;;;16.70;99.90;;;;;;4805496;29;20046;-72
2023/07/16 04:40:21;;;;;;;1999.90;999.90;;;16.70;99.90;;;;;;4807096;29;20055;-72
2023/07/16 04:42:47;;;;;;;1999.90;999.90;;;16.70;99.90;;;;;;4806701;29;20401;-75
2023/07/16 04:45:12;;;;;;;1999.90;999.90;;;16.70;99.90;;;;;;4805741;29;20388;-72
2023/07/16 04:47:38;;;;;;;1999.90;999.90;;;16.70;99.90;;;;;;4820706;29;20066;-72
2023/07/16 04:50:04;;;;;;;1999.90;999.90;;;16.70;99.90;;;;;;4806700;29;20063;-72
2023/07/16 04:52:30;;;;;;;1999.90;999.90;;;16.70;99.90;;;;;;4806513;29;20082;-72
2023/07/16 04:54:56;;;;;;;1999.90;999.90;;;16.70;99.90;;;;;;4806839;29;20473;-72
2023/07/16 04:57:22;;;;;;;1999.90;999.90;;;16.70;99.90;;;;;;4805240;29;20418;-72
2023/07/16 04:59:47;;;;;;;1999.90;999.90;;;16.70;99.90;;;;;;4820036;29;20513;-72
2023/07/16 05:02:15;;;;;;;1999.90;999.90;;;16.80;99.90;;;;;;4806284;29;20058;-72
2023/07/16 05:04:41;;;;;;;1999.90;999.90;;;16.80;99.90;;;;;;4807054;29;20191;-73
2023/07/16 05:07:07;;;;;;;1999.90;999.90;;;16.80;99.90;;;;;;4805280;29;20516;-73
2023/07/16 05:09:33;;;;;;;1999.90;999.90;;;16.80;99.90;;;;;;4805766;29;20043;-72
2023/07/16 05:11:58;;;;;;;1999.90;999.90;;;16.80;99.90;;;;;;4806241;29;20503;-72
2023/07/16 05:14:28;;;;;;;1999.90;999.90;;;16.90;99.90;;;;;;4806174;29;20112;-73
2023/07/16 05:16:54;;;;;;;1999.90;999.90;;;16.90;99.90;;;;;;4807867;29;20065;-72
2023/07/16 05:19:19;;;;;;;1999.90;999.90;;;16.90;99.90;;;;;;4809711;29;20448;-71
2023/07/16 05:21:45;;;;;;;1999.90;999.90;;;16.90;99.90;;;;;;4810277;29;20156;-71
2023/07/16 05:24:11;;;;;;;1999.90;999.90;;;16.90;99.90;;;;;;4809002;29;20055;-71
2023/07/16 05:26:37;;;;;;;1999.90;999.90;;;16.90;99.90;;;;;;4809634;29;20047;-72
2023/07/16 05:29:03;;;;;;;1999.90;999.90;;;17.00;99.90;;;;;;4809045;29;20086;-74
2023/07/16 05:31:29;;;;;;;1999.90;999.90;;;17.00;99.90;;;;;;4793742;29;20564;-72
2023/07/16 05:33:55;;;;;;;1999.90;999.90;;;17.00;99.90;;;;;;4808222;29;20053;-73
2023/07/16 05:36:20;;;;;;;1999.90;999.90;;;17.10;99.90;;;;;;4809437;29;20054;-73
2023/07/16 05:38:46;;;;;;;1999.90;999.90;;;17.10;99.90;;;;;;4809542;29;20264;-73
2023/07/16 05:41:12;;;;;;;1999.90;999.90;;;17.10;99.90;;;;;;4809480;29;20547;-72
2023/07/16 05:43:37;;;;;;;1999.90;999.90;;;17.20;99.90;;;;;;4808321;29;20454;-73
2023/07/16 05:46:05;;;;;;;1999.90;999.90;;;17.20;99.90;;;;;;4808368;29;20094;-72
2023/07/16 05:48:31;;;;;;;1999.90;999.90;;;17.20;99.90;;;;;;4809651;29;20062;-73
2023/07/16 05:50:56;;;;;;;1999.90;999.90;;;17.30;99.90;;;;;;4809197;29;20062;-72
2023/07/16 05:53:22;;;;;;;1999.90;999.90;;;17.30;99.90;;;;;;4809243;29;20138;-72
2023/07/16 05:55:49;;;;;;;1999.90;999.90;;;17.30;99.90;;;;;;4808076;29;20397;-72
2023/07/16 05:58:16;;;;;;;1999.90;999.90;;;17.40;99.90;;;;;;4808490;29;20401;-72
2023/07/16 06:00:42;;;;;;;1999.90;999.90;;;17.40;99.90;;;;;;4807897;29;20454;-72
2023/07/16 06:03:07;;;;;;;1999.90;999.90;;;17.40;99.90;;;;;;4809491;29;20051;-72
2023/07/16 06:05:34;;;;;;;1999.90;999.90;;;17.40;99.90;;;;;;4809046;29;20055;-73
2023/07/16 06:08:00;;;;;;;1999.90;999.90;;;17.50;99.90;;;;;;4807922;29;20408;-71
2023/07/16 06:10:26;;;;;;;1999.90;999.90;;;17.50;99.90;;;;;;4809042;29;20055;-73
2023/07/16 06:12:51;;;;;;;1999.90;999.90;;;17.50;99.90;;;;;;4808773;29;20055;-72
2023/07/16 06:15:17;;;;;;;1999.90;999.90;;;17.60;99.90;;;;;;4807854;29;20054;-72
2023/07/16 06:17:43;;;;;;;1999.90;999.90;;;17.60;99.90;;;;;;4808734;29;20054;-71
2023/07/16 06:20:09;;;;;;;1999.90;999.90;;;17.60;99.90;;;;;;4808803;29;20046;-73
2023/07/16 06:22:34;;;;;;;1999.90;999.90;;;17.60;99.90;;;;;;4807540;29;20061;-71
2023/07/16 06:25:00;;;;;;;1999.90;999.90;;;17.70;99.90;;;;;;4809142;29;20066;-71
2023/07/16 06:27:26;;;;;;;1999.90;999.90;;;17.70;99.90;;;;;;4792487;29;20087;-71
2023/07/16 06:29:52;;;;;;;1999.90;999.90;;;17.70;99.90;;;;;;4791858;29;20055;-71
2023/07/16 06:32:18;;;;;;;1999.90;999.90;;;17.80;99.90;;;;;;4809294;29;20137;-72
2023/07/16 06:34:43;;;;;;;1999.90;999.90;;;17.80;99.90;;;;;;4822501;29;20120;-71
2023/07/16 06:37:09;;;;;;;1999.90;999.90;;;17.80;99.90;;;;;;4807605;29;20047;-73
2023/07/16 06:39:35;;;;;;;1999.90;999.90;;;17.90;99.90;;;;;;4808261;29;20054;-72
2023/07/16 06:42:01;;;;;;;1999.90;999.90;;;17.90;99.90;;;;;;4808301;29;20070;-72
2023/07/16 06:44:26;;;;;;;1999.90;999.90;;;17.90;99.90;;;;;;4809135;29;20051;-73
2023/07/16 06:46:52;;;;;;;1999.90;999.90;;;18.00;99.90;;;;;;4808206;29;20046;-72
2023/07/16 06:49:18;;;;;;;1999.90;999.90;;;18.00;99.90;;;;;;4808208;29;20051;-72
2023/07/16 06:51:44;;;;;;;1999.90;999.90;;;18.10;99.90;;;;;;4806811;29;20127;-72
2023/07/16 06:54:10;;;;;;;1999.90;999.90;;;18.10;99.90;;;;;;4806890;29;20059;-73
2023/07/16 06:56:36;;;;;;;1999.90;999.90;;;18.20;99.90;;;;;;4806995;29;20446;-73
2023/07/16 06:59:02;;;;;;;1999.90;999.90;;;18.20;99.90;;;;;;4791863;29;20054;-75
2023/07/16 07:01:27;;;;;;;1999.90;999.90;;;18.20;99.90;;;;;;4807992;29;20046;-73
2023/07/16 07:03:54;;;;;;;1999.90;999.90;;;18.30;99.90;;;;;;4807713;29;20333;-74
2023/07/16 07:06:21;;;;;;;1999.90;999.90;;;18.30;99.90;;;;;;4808871;29;20062;-77
2023/07/16 07:08:47;;;;;;;1999.90;999.90;;;18.30;99.90;;;;;;4807839;29;20122;-74
2023/07/16 07:11:13;;;;;;;1999.90;999.90;;;18.30;99.90;;;;;;4808180;29;20050;-74
2023/07/16 07:13:38;;;;;;;1999.90;999.90;;;18.40;99.90;;;;;;4821536;29;20199;-73
2023/07/16 07:16:04;;;;;;;1999.90;999.90;;;18.40;99.90;;;;;;4806738;29;20153;-73
2023/07/16 07:18:30;;;;;;;1999.90;999.90;;;18.40;99.90;;;;;;4807584;29;20055;-73
2023/07/16 07:20:56;;;;;;;1999.90;999.90;;;18.40;99.90;;;;;;4808103;29;20061;-73
2023/07/16 07:23:22;;;;;;;1999.90;999.90;;;18.50;99.90;;;;;;4807661;29;20054;-73
2023/07/16 07:25:51;;;;;;;1999.90;999.90;;;18.50;99.90;;;;;;4822460;29;20489;-72
2023/07/16 07:28:18;;;;;;;1999.90;999.90;;;18.50;99.90;;;;;;4807504;29;20058;-76
2023/07/16 07:30:44;;;;;;;1999.90;999.90;;;18.50;99.90;;;;;;4806422;29;20111;-73
2023/07/16 07:33:10;;;;;;;1999.90;999.90;;;18.60;99.90;;;;;;4806695;29;20051;-74
2023/07/16 07:35:36;;;;;;;1999.90;999.90;;;18.60;99.90;;;;;;4807473;29;20397;-72
2023/07/16 07:38:02;;;;;;;1999.90;999.90;;;18.60;99.90;;;;;;4807330;29;20051;-73
2023/07/16 07:40:27;;;;;;;1999.90;999.90;;;18.60;99.90;;;;;;4806375;29;20058;-73
2023/07/16 07:42:53;;;;;;;1999.90;999.90;;;18.60;99.90;;;;;;4807278;29;20605;-74
2023/07/16 07:45:19;;;;;;;1999.90;999.90;;;18.70;99.90;;;;;;4821597;29;20137;-73
2023/07/16 07:47:44;;;;;;;1999.90;999.90;;;18.80;99.90;;;;;;4807212;29;20050;-72
2023/07/16 07:50:10;;;;;;;1999.90;999.90;;;18.90;99.90;;;;;;4805889;29;20065;-72
2023/07/16 07:52:36;;;;;;;1999.90;999.90;;;18.90;99.90;;;;;;4807637;29;20058;-73
2023/07/16 07:55:02;;;;;;;1999.90;999.90;;;18.90;99.90;;;;;;4807008;29;20055;-73
2023/07/16 07:57:28;;;;;;;1999.90;999.90;;;19.00;99.90;;;;;;4776112;29;20406;-75
2023/07/16 07:59:57;;;;;;;1999.90;999.90;;;19.10;99.90;;;;;;4821339;29;20043;-73
2023/07/16 08:02:27;;;;;;;1999.90;999.90;;;19.10;99.90;;;;;;4807069;29;20058;-70
2023/07/16 08:04:53;;;;;;;1999.90;999.90;;;19.10;99.90;;;;;;4806486;29;20049;-72
2023/07/16 08:07:19;;;;;;;1999.90;999.90;;;19.10;99.90;;;;;;4806979;29;20187;-74
2023/07/16 08:09:46;;;;;;;1999.90;999.90;;;19.20;99.90;;;;;;4806819;29;20137;-75
2023/07/16 08:12:12;;;;;;;1999.90;999.90;;;19.10;99.90;;;;;;4806910;29;20051;-75
2023/07/16 08:14:38;;;;;;;1999.90;999.90;;;19.10;99.90;;;;;;4805944;29;20069;-72
2023/07/16 08:17:04;;;;;;;1999.90;999.90;;;19.20;99.90;;;;;;4805846;29;20137;-73
2023/07/16 08:19:30;;;;;;;1999.90;999.90;;;19.10;99.90;;;;;;4806926;29;20571;-76
2023/07/16 08:21:56;;;;;;;1999.90;999.90;;;19.10;99.90;;;;;;4821253;29;20108;-73
2023/07/16 08:24:21;;;;;;;1999.90;999.90;;;19.20;99.90;;;;;;4806913;29;20058;-74
2023/07/16 08:26:47;;;;;;;1999.90;999.90;;;19.20;99.90;;;;;;4807220;29;20080;-75
2023/07/16 08:29:13;;;;;;;1999.90;999.90;;;19.20;99.90;;;;;;4805863;29;20480;-73
2023/07/16 08:31:39;;;;;;;1999.90;999.90;;;19.30;99.90;;;;;;4806694;29;20061;-74
2023/07/16 08:34:04;;;;;;;1999.90;999.90;;;19.30;99.90;;;;;;4821063;29;20054;-73
2023/07/16 08:36:30;;;;;;;1999.90;999.90;;;19.30;99.90;;;;;;4820842;29;20080;-76
2023/07/16 08:38:56;;;;;;;1999.90;999.90;;;19.30;99.90;;;;;;4806635;29;20086;-75
2023/07/16 08:41:22;;;;;;;1999.90;999.90;;;19.30;99.90;;;;;;4820874;29;20055;-75
2023/07/16 08:43:49;;;;;;;1999.90;999.90;;;19.40;99.90;;;;;;4807015;29;20543;-76
2023/07/16 08:46:18;;;;;;;1999.90;999.90;;;19.30;99.90;;;;;;4805808;29;20403;-74
2023/07/16 08:48:45;;;;;;;1999.90;999.90;;;19.40;99.90;;;;;;4790657;29;20051;-72
2023/07/16 08:51:14;;;;;;;1999.90;999.90;;;19.40;99.90;;;;;;4806164;29;20503;-73
2023/07/16 08:53:40;;;;;;;1999.90;999.90;;;19.40;99.90;;;;;;4820656;29;20059;-72
2023/07/16 08:56:06;;;;;;;1999.90;999.90;;;19.50;99.90;;;;;;4805542;29;20495;-78
2023/07/16 08:58:32;;;;;;;1999.90;999.90;;;19.60;99.90;;;;;;4806452;29;20058;-72
2023/07/16 09:01:00;;;;;;;1999.90;999.90;;;19.60;99.90;;;;;;4806978;29;20059;-72
2023/07/16 09:03:26;;;;;;;1999.90;999.90;;;19.70;99.90;;;;;;4806475;29;20058;-73
2023/07/16 09:05:53;;;;;;;1999.90;999.90;;;19.80;99.90;;;;;;4805306;29;20059;-73
2023/07/16 09:08:19;;;;;;;1999.90;999.90;;;19.80;99.90;;;;;;4806530;29;20058;-76
2023/07/16 09:10:56;;;;;;;1999.90;999.90;;;19.90;99.90;;;;;;4805938;29;20054;-71
2023/07/16 09:13:27;;;;;;;1999.90;999.90;;;19.80;99.90;;;;;;4806438;29;20055;-72
2023/07/16 09:15:58;;;;;;;1999.90;999.90;;;19.80;99.90;;;;;;4806324;29;20055;-72
2023/07/16 09:18:25;;;;;;;1999.90;999.90;;;19.80;99.90;;;;;;4805282;29;20147;-72
2023/07/16 09:21:02;;;;;;;1999.90;999.90;;;19.80;99.90;;;;;;4805489;29;20096;-72
2023/07/16 09:23:31;;;;;;;1999.90;999.90;;;19.80;99.90;;;;;;4806003;29;20055;-67
2023/07/16 09:25:57;;;;;;;1999.90;999.90;;;19.80;99.90;;;;;;4806874;29;20053;-70
2023/07/16 09:28:23;;;;;;;1999.90;999.90;;;19.90;99.90;;;;;;4790377;29;20055;-72
2023/07/16 09:30:52;;;;;;;1999.90;999.90;;;20.00;99.90;;;;;;4805343;29;20078;-77
2023/07/16 09:33:21;;;;;;;1999.90;999.90;;;20.10;99.90;;;;;;4806268;29;20137;-75
2023/07/16 09:35:50;;;;;;;1999.90;999.90;;;20.20;99.90;;;;;;4806276;29;20101;-75
2023/07/16 09:38:17;;;;;;;1999.90;999.90;;;20.30;99.90;;;;;;4805845;29;20507;-76
2023/07/16 09:40:43;;;;;;;1999.90;999.90;;;20.40;99.90;;;;;;4806184;29;20058;-73
2023/07/16 09:43:10;;;;;;;1999.90;999.90;;;20.40;99.90;;;;;;4805189;29;20488;-72
2023/07/16 09:45:36;;;;;;;1999.90;999.90;;;20.50;99.90;;;;;;4806225;29;20054;-72
2023/07/16 09:48:03;;;;;;;1999.90;999.90;;;20.40;99.90;;;;;;4804899;29;20051;-71
2023/07/16 09:50:31;;;;;;;1999.90;999.90;;;20.40;99.90;;;;;;4806216;29;20070;-71
2023/07/16 09:52:57;;;;;;;1999.90;999.90;;;20.40;99.90;;;;;;4806106;29;20058;-72
2023/07/16 09:55:24;;;;;;;1999.90;999.90;;;20.30;99.90;;;;;;4805058;29;20107;-74
2023/07/16 09:57:52;;;;;;;1999.90;999.90;;;20.30;99.90;;;;;;4805902;29;20050;-73
2023/07/16 10:00:20;;;;;;;1999.90;999.90;;;20.20;99.90;;;;;;4805039;29;20554;-72
2023/07/16 10:02:46;;;;;;;1999.90;999.90;;;20.20;99.90;;;;;;4805967;29;20051;-74
2023/07/16 10:05:16;;;;;;;1999.90;999.90;;;20.20;99.90;;;;;;4823346;29;20054;-73
2023/07/16 10:07:42;;;;;;;1999.90;999.90;;;20.20;99.90;;;;;;4808916;29;20504;-74
2023/07/16 10:10:09;;;;;;;1999.90;999.90;;;20.30;99.90;;;;;;4793442;29;20058;-73
2023/07/16 10:12:36;;;;;;;1999.90;999.90;;;20.30;99.90;;;;;;4808939;29;20404;-70
2023/07/16 10:15:03;;;;;;;1999.90;999.90;;;20.30;99.90;;;;;;4808122;29;20054;-71
2023/07/16 10:17:31;;;;;;;1999.90;999.90;;;20.40;99.90;;;;;;4809511;29;20063;-77
2023/07/16 10:20:07;;;;;;;1999.90;999.90;;;20.40;99.90;;;;;;4822921;29;20047;-75
2023/07/16 10:22:40;;;;;;;1999.90;999.90;;;20.50;99.90;;;;;;4809454;29;20051;-72
2023/07/16 10:25:05;;;;;;;;;;;20.40;99.90;;;;;;4809296;29;20097;-74
2023/07/16 10:27:33;;;;;;;1999.90;999.90;;;20.50;99.90;;;;;;4807949;29;19972;-73
2023/07/16 10:30:04;;;;;;;1999.90;999.90;;;20.50;99.90;;;;;;4807697;29;20524;-73
2023/07/16 10:32:32;;;;;;;1999.90;999.90;;;20.60;99.90;;;;;;4808753;29;20090;-73
2023/07/16 10:34:58;;;;;;;1999.90;999.90;;;20.70;99.90;;;;;;4792741;29;20061;-72
2023/07/16 10:37:25;;;;;;;1999.90;999.90;;;20.80;99.90;;;;;;4808663;29;20059;-73
2023/07/16 10:39:53;;;;;;;1999.90;999.90;;;20.80;99.90;;;;;;4808650;29;20062;-72
2023/07/16 10:42:19;;;;;;;1999.90;999.90;;;20.80;99.90;;;;;;4808665;29;20047;-77
2023/07/16 10:44:49;;;;;;;1999.90;999.90;;;20.70;99.90;;;;;;4822222;29;20133;-75
2023/07/16 10:47:22;;;;;;;1999.90;999.90;;;20.60;99.90;;;;;;4808497;29;20070;-73
2023/07/16 10:49:48;;;;;;;1999.90;999.90;;;20.50;99.90;;;;;;4808569;29;20050;-73
2023/07/16 10:52:13;;;;;;;1999.90;999.90;;;20.50;99.90;;;;;;4808294;29;20063;-72
2023/07/16 10:54:42;;;;;;;1999.90;999.90;;;20.50;99.90;;;;;;4808366;29;20054;-72
2023/07/16 10:57:08;;;;;;;1999.90;999.90;;;20.50;99.90;;;;;;4809176;29;20078;-71
2023/07/16 10:59:38;;;;;;;1999.90;999.90;;;20.60;99.90;;;;;;4807079;29;20055;-71
2023/07/16 11:02:04;;;;;;;1999.90;999.90;;;20.60;99.90;;;;;;4807273;29;20184;-70
2023/07/16 11:04:35;;;;;;;1999.90;999.90;;;20.60;99.90;;;;;;4809003;29;20050;-71
2023/07/16 11:07:08;;;;;;;1999.90;999.90;;;20.60;99.90;;;;;;4807206;29;20480;-72
2023/07/16 11:09:34;;;;;;;1999.90;999.90;;;20.70;99.90;;;;;;4806969;29;20055;-71
2023/07/16 11:12:11;;;;;;;1999.90;999.90;;;20.70;99.90;;;;;;4808046;29;20053;-73
2023/07/16 11:14:37;;;;;;;1999.90;999.90;;;20.80;99.90;;;;;;4808040;29;20504;-72
2023/07/16 11:17:10;;;;;;;1999.90;999.90;;;20.90;99.90;;;;;;4808032;29;20134;-72
2023/07/16 11:19:36;;;;;;;;;;;20.90;99.90;;;;;;4808306;29;20054;-72
2023/07/16 11:22:04;;;;;;;1999.90;999.90;;;20.90;99.90;;;;;;4808562;29;19929;-73
2023/07/16 11:24:40;;;;;;;1999.90;999.90;;;20.90;99.90;;;;;;4806539;29;20510;-72
2023/07/16 11:27:14;;;;;;;1999.90;999.90;;;20.90;99.90;;;;;;4807465;29;20094;-72
2023/07/16 11:29:41;;;;;;;1999.90;999.90;;;20.80;99.90;;;;;;4807496;29;20142;-76
2023/07/16 11:32:08;;;;;;;1999.90;999.90;;;20.80;99.90;;;;;;4806813;29;20405;-80
2023/07/16 11:34:33;;;;;;;1999.90;999.90;;;20.70;99.90;;;;;;4791835;29;20047;-71
2023/07/16 11:37:10;;;;;;;1999.90;999.90;;;20.70;99.90;;;;;;4821749;29;20092;-73
2023/07/16 11:39:36;;;;;;;1999.90;999.90;;;20.80;99.90;;;;;;4807175;29;20429;-71
2023/07/16 11:42:03;;;;;;;1999.90;999.90;;;20.80;99.90;;;;;;4806770;29;20058;-74
2023/07/16 11:44:34;;;;;;;1999.90;999.90;;;20.80;99.90;;;;;;4807533;29;20107;-72
2023/07/16 11:47:01;;;;;;;1999.90;999.90;;;20.80;99.90;;;;;;4807365;29;20051;-74
2023/07/16 11:49:26;;;;;;;1999.90;999.90;;;20.80;99.90;;;;;;4806305;29;20086;-73
2023/07/16 11:51:52;;;;;;;1999.90;999.90;;;20.80;99.90;;;;;;4807206;29;20147;-76
2023/07/16 11:54:18;;;;;;;1999.90;999.90;;;20.80;99.90;;;;;;4806446;29;20503;-75
2023/07/16 11:56:43;;;;;;;1999.90;999.90;;;20.70;99.90;;;;;;4791182;29;20050;-73
2023/07/16 11:59:09;;;;;;;1999.90;999.90;;;20.70;99.90;;;;;;4806893;29;20130;-74